sensor_id;sensor_type;location;lat;lon;timestamp;P1;durP1;ratioP1;P2;durP2;ratioP2
37069;SDS011;22984;48.862;9.320;2022-11-04T00:01:30;0.88;;;0.75;;
37069;SDS011;22984;48.862;9.320;2022-11-04T00:03:56;1.20;;;1.02;;
37069;SDS011;22984;48.862;9.320;2022-11-04T00:06:23;2.20;;;0.60;;
37069;SDS011;22984;48.862;9.320;2022-11-04T00:08:49;2.00;;;1.02;;
37069;SDS011;22984;48.862;9.320;2022-11-04T00:11:16;2.15;;;0.80;;
37069;SDS011;22984;48.862;9.320;2022-11-04T00:14:01;2.78;;;0.75;;
37069;SDS011;22984;48.862;9.320;2022-11-04T00:16:27;1.70;;;0.60;;
37069;SDS011;22984;48.862;9.320;2022-11-04T00:19:12;1.15;;;0.43;;
37069;SDS011;22984;48.862;9.320;2022-11-04T00:21:38;0.80;;;0.68;;
37069;SDS011;22984;48.862;9.320;2022-11-04T00:24:22;1.67;;;0.40;;
37069;SDS011;22984;48.862;9.320;2022-11-04T00:27:13;0.55;;;0.40;;
37069;SDS011;22984;48.862;9.320;2022-11-04T00:29:59;1.20;;;0.50;;
37069;SDS011;22984;48.862;9.320;2022-11-04T00:32:25;0.93;;;0.60;;
37069;SDS011;22984;48.862;9.320;2022-11-04T00:35:10;1.33;;;0.45;;
37069;SDS011;22984;48.862;9.320;2022-11-04T00:37:37;1.10;;;0.50;;
37069;SDS011;22984;48.862;9.320;2022-11-04T00:40:03;1.00;;;0.50;;
37069;SDS011;22984;48.862;9.320;2022-11-04T00:42:30;0.60;;;0.50;;
37069;SDS011;22984;48.862;9.320;2022-11-04T00:44:56;1.40;;;0.50;;
37069;SDS011;22984;48.862;9.320;2022-11-04T00:47:22;1.02;;;0.50;;
37069;SDS011;22984;48.862;9.320;2022-11-04T00:49:48;1.55;;;0.52;;
37069;SDS011;22984;48.862;9.320;2022-11-04T00:52:14;1.35;;;0.68;;
37069;SDS011;22984;48.862;9.320;2022-11-04T00:54:41;0.75;;;0.70;;
37069;SDS011;22984;48.862;9.320;2022-11-04T00:57:13;3.00;;;0.80;;
37069;SDS011;22984;48.862;9.320;2022-11-04T00:59:39;0.80;;;0.70;;
37069;SDS011;22984;48.862;9.320;2022-11-04T01:02:06;1.75;;;0.70;;
37069;SDS011;22984;48.862;9.320;2022-11-04T01:04:32;0.98;;;0.80;;
37069;SDS011;22984;48.862;9.320;2022-11-04T01:06:58;0.73;;;0.73;;
37069;SDS011;22984;48.862;9.320;2022-11-04T01:09:24;1.27;;;0.70;;
37069;SDS011;22984;48.862;9.320;2022-11-04T01:11:50;1.08;;;0.80;;
37069;SDS011;22984;48.862;9.320;2022-11-04T01:14:16;0.45;;;0.40;;
37069;SDS011;22984;48.862;9.320;2022-11-04T01:16:42;0.80;;;0.70;;
37069;SDS011;22984;48.862;9.320;2022-11-04T01:19:08;1.70;;;0.60;;
37069;SDS011;22984;48.862;9.320;2022-11-04T01:21:34;0.73;;;0.60;;
37069;SDS011;22984;48.862;9.320;2022-11-04T01:24:01;1.15;;;0.60;;
37069;SDS011;22984;48.862;9.320;2022-11-04T01:26:27;0.80;;;0.80;;
37069;SDS011;22984;48.862;9.320;2022-11-04T01:28:53;0.98;;;0.75;;
37069;SDS011;22984;48.862;9.320;2022-11-04T01:31:21;0.90;;;0.50;;
37069;SDS011;22984;48.862;9.320;2022-11-04T01:33:48;2.35;;;0.90;;
37069;SDS011;22984;48.862;9.320;2022-11-04T01:36:14;3.80;;;0.73;;
37069;SDS011;22984;48.862;9.320;2022-11-04T01:38:40;1.95;;;0.88;;
37069;SDS011;22984;48.862;9.320;2022-11-04T01:41:07;3.13;;;1.20;;
37069;SDS011;22984;48.862;9.320;2022-11-04T01:43:44;0.98;;;0.60;;
37069;SDS011;22984;48.862;9.320;2022-11-04T01:46:12;1.85;;;0.80;;
37069;SDS011;22984;48.862;9.320;2022-11-04T01:48:41;2.50;;;0.90;;
37069;SDS011;22984;48.862;9.320;2022-11-04T01:51:07;1.00;;;0.60;;
37069;SDS011;22984;48.862;9.320;2022-11-04T01:53:36;1.92;;;0.80;;
37069;SDS011;22984;48.862;9.320;2022-11-04T01:56:05;1.10;;;0.50;;
37069;SDS011;22984;48.862;9.320;2022-11-04T01:58:36;1.60;;;0.60;;
37069;SDS011;22984;48.862;9.320;2022-11-04T02:01:04;3.33;;;0.50;;
37069;SDS011;22984;48.862;9.320;2022-11-04T02:03:34;0.73;;;0.50;;
37069;SDS011;22984;48.862;9.320;2022-11-04T02:06:01;0.90;;;0.50;;
37069;SDS011;22984;48.862;9.320;2022-11-04T02:08:27;1.67;;;0.60;;
37069;SDS011;22984;48.862;9.320;2022-11-04T02:10:58;2.50;;;0.63;;
37069;SDS011;22984;48.862;9.320;2022-11-04T02:13:25;1.03;;;0.60;;
37069;SDS011;22984;48.862;9.320;2022-11-04T02:18:40;0.55;;;0.45;;
37069;SDS011;22984;48.862;9.320;2022-11-04T02:21:12;0.90;;;0.50;;
37069;SDS011;22984;48.862;9.320;2022-11-04T02:33:51;0.75;;;0.30;;
37069;SDS011;22984;48.862;9.320;2022-11-04T02:39:05;0.50;;;0.47;;
37069;SDS011;22984;48.862;9.320;2022-11-04T02:41:36;1.40;;;0.30;;
37069;SDS011;22984;48.862;9.320;2022-11-04T02:44:17;1.45;;;0.30;;
37069;SDS011;22984;48.862;9.320;2022-11-04T02:46:47;1.02;;;0.40;;
37069;SDS011;22984;48.862;9.320;2022-11-04T02:49:19;1.30;;;0.35;;
37069;SDS011;22984;48.862;9.320;2022-11-04T02:51:49;1.27;;;0.40;;
37069;SDS011;22984;48.862;9.320;2022-11-04T02:54:32;0.90;;;0.43;;
37069;SDS011;22984;48.862;9.320;2022-11-04T02:56:59;1.20;;;0.40;;
37069;SDS011;22984;48.862;9.320;2022-11-04T03:01:58;2.03;;;0.40;;
37069;SDS011;22984;48.862;9.320;2022-11-04T03:04:27;1.40;;;0.30;;
37069;SDS011;22984;48.862;9.320;2022-11-04T03:06:56;0.45;;;0.32;;
37069;SDS011;22984;48.862;9.320;2022-11-04T03:09:23;1.30;;;0.37;;
37069;SDS011;22984;48.862;9.320;2022-11-04T03:11:51;0.90;;;0.30;;
37069;SDS011;22984;48.862;9.320;2022-11-04T03:14:19;1.20;;;0.50;;
37069;SDS011;22984;48.862;9.320;2022-11-04T03:16:50;2.33;;;0.50;;
37069;SDS011;22984;48.862;9.320;2022-11-04T03:19:32;3.25;;;0.50;;
37069;SDS011;22984;48.862;9.320;2022-11-04T03:22:04;1.00;;;0.40;;
37069;SDS011;22984;48.862;9.320;2022-11-04T03:24:32;2.85;;;0.40;;
37069;SDS011;22984;48.862;9.320;2022-11-04T03:26:59;3.70;;;0.70;;
37069;SDS011;22984;48.862;9.320;2022-11-04T03:29:32;0.98;;;0.20;;
37069;SDS011;22984;48.862;9.320;2022-11-04T03:34:43;1.25;;;0.50;;
37069;SDS011;22984;48.862;9.320;2022-11-04T03:37:09;3.70;;;0.47;;
37069;SDS011;22984;48.862;9.320;2022-11-04T03:39:35;2.30;;;0.43;;
37069;SDS011;22984;48.862;9.320;2022-11-04T03:42:03;0.80;;;0.30;;
37069;SDS011;22984;48.862;9.320;2022-11-04T03:44:54;2.95;;;0.68;;
37069;SDS011;22984;48.862;9.320;2022-11-04T03:47:21;3.40;;;0.40;;
37069;SDS011;22984;48.862;9.320;2022-11-04T03:49:48;2.50;;;0.40;;
37069;SDS011;22984;48.862;9.320;2022-11-04T03:52:16;2.07;;;0.50;;
37069;SDS011;22984;48.862;9.320;2022-11-04T03:54:42;2.08;;;0.57;;
37069;SDS011;22984;48.862;9.320;2022-11-04T04:05:02;3.13;;;0.40;;
37069;SDS011;22984;48.862;9.320;2022-11-04T04:08:13;0.60;;;0.30;;
37069;SDS011;22984;48.862;9.320;2022-11-04T04:10:26;2.42;;;0.50;;
37069;SDS011;22984;48.862;9.320;2022-11-04T04:13:52;3.15;;;0.70;;
37069;SDS011;22984;48.862;9.320;2022-11-04T04:15:55;3.40;;;0.60;;
37069;SDS011;22984;48.862;9.320;2022-11-04T04:18:25;1.10;;;0.70;;
37069;SDS011;22984;48.862;9.320;2022-11-04T04:20:54;1.30;;;0.80;;
37069;SDS011;22984;48.862;9.320;2022-11-04T04:23:22;4.07;;;0.73;;
37069;SDS011;22984;48.862;9.320;2022-11-04T04:26:09;2.50;;;0.90;;
37069;SDS011;22984;48.862;9.320;2022-11-04T04:28:55;3.90;;;0.70;;
37069;SDS011;22984;48.862;9.320;2022-11-04T04:31:21;3.75;;;0.93;;
37069;SDS011;22984;48.862;9.320;2022-11-04T04:34:06;1.25;;;0.77;;
37069;SDS011;22984;48.862;9.320;2022-11-04T04:36:33;1.20;;;0.70;;
37069;SDS011;22984;48.862;9.320;2022-11-04T04:39:04;3.60;;;0.65;;
37069;SDS011;22984;48.862;9.320;2022-11-04T04:41:50;1.80;;;0.52;;
37069;SDS011;22984;48.862;9.320;2022-11-04T04:44:35;4.22;;;1.02;;
37069;SDS011;22984;48.862;9.320;2022-11-04T04:47:21;3.97;;;0.80;;
37069;SDS011;22984;48.862;9.320;2022-11-04T04:49:51;2.20;;;1.10;;
37069;SDS011;22984;48.862;9.320;2022-11-04T04:52:17;2.28;;;1.20;;
37069;SDS011;22984;48.862;9.320;2022-11-04T04:54:44;2.03;;;1.23;;
37069;SDS011;22984;48.862;9.320;2022-11-04T04:57:10;3.13;;;1.10;;
37069;SDS011;22984;48.862;9.320;2022-11-04T04:59:36;4.22;;;1.67;;
37069;SDS011;22984;48.862;9.320;2022-11-04T05:02:02;2.70;;;1.13;;
37069;SDS011;22984;48.862;9.320;2022-11-04T05:04:28;3.35;;;1.40;;
37069;SDS011;22984;48.862;9.320;2022-11-04T05:06:54;2.90;;;1.40;;
37069;SDS011;22984;48.862;9.320;2022-11-04T05:09:20;3.42;;;1.60;;
37069;SDS011;22984;48.862;9.320;2022-11-04T05:11:46;7.47;;;1.50;;
37069;SDS011;22984;48.862;9.320;2022-11-04T05:14:13;2.03;;;1.13;;
37069;SDS011;22984;48.862;9.320;2022-11-04T05:16:39;1.70;;;0.80;;
37069;SDS011;22984;48.862;9.320;2022-11-04T05:19:05;4.60;;;1.50;;
37069;SDS011;22984;48.862;9.320;2022-11-04T05:21:31;4.82;;;1.42;;
37069;SDS011;22984;48.862;9.320;2022-11-04T05:23:57;4.13;;;2.30;;
37069;SDS011;22984;48.862;9.320;2022-11-04T05:26:23;2.30;;;1.60;;
37069;SDS011;22984;48.862;9.320;2022-11-04T05:28:49;2.15;;;1.40;;
37069;SDS011;22984;48.862;9.320;2022-11-04T05:31:15;2.30;;;1.30;;
37069;SDS011;22984;48.862;9.320;2022-11-04T05:33:41;3.13;;;1.88;;
37069;SDS011;22984;48.862;9.320;2022-11-04T05:36:08;4.45;;;1.30;;
37069;SDS011;22984;48.862;9.320;2022-11-04T05:38:35;2.00;;;1.17;;
37069;SDS011;22984;48.862;9.320;2022-11-04T05:41:02;3.38;;;1.10;;
37069;SDS011;22984;48.862;9.320;2022-11-04T05:43:28;5.50;;;1.63;;
37069;SDS011;22984;48.862;9.320;2022-11-04T05:45:54;5.82;;;1.30;;
37069;SDS011;22984;48.862;9.320;2022-11-04T05:48:20;4.57;;;1.23;;
37069;SDS011;22984;48.862;9.320;2022-11-04T05:50:46;4.30;;;0.90;;
37069;SDS011;22984;48.862;9.320;2022-11-04T05:53:12;2.72;;;0.90;;
37069;SDS011;22984;48.862;9.320;2022-11-04T05:55:38;3.70;;;1.13;;
37069;SDS011;22984;48.862;9.320;2022-11-04T05:58:04;6.55;;;0.82;;
37069;SDS011;22984;48.862;9.320;2022-11-04T06:00:30;3.42;;;1.30;;
37069;SDS011;22984;48.862;9.320;2022-11-04T06:02:56;3.15;;;0.70;;
37069;SDS011;22984;48.862;9.320;2022-11-04T06:05:22;3.83;;;0.80;;
37069;SDS011;22984;48.862;9.320;2022-11-04T06:07:49;4.03;;;1.10;;
37069;SDS011;22984;48.862;9.320;2022-11-04T06:10:15;3.15;;;1.50;;
37069;SDS011;22984;48.862;9.320;2022-11-04T06:12:41;3.40;;;1.80;;
37069;SDS011;22984;48.862;9.320;2022-11-04T06:15:07;2.55;;;1.40;;
37069;SDS011;22984;48.862;9.320;2022-11-04T06:17:33;3.08;;;1.45;;
37069;SDS011;22984;48.862;9.320;2022-11-04T06:19:59;5.30;;;1.85;;
37069;SDS011;22984;48.862;9.320;2022-11-04T06:22:25;1.63;;;1.15;;
37069;SDS011;22984;48.862;9.320;2022-11-04T06:24:51;3.05;;;1.70;;
37069;SDS011;22984;48.862;9.320;2022-11-04T06:27:17;3.35;;;1.10;;
37069;SDS011;22984;48.862;9.320;2022-11-04T06:29:43;3.65;;;1.55;;
37069;SDS011;22984;48.862;9.320;2022-11-04T06:32:12;1.90;;;1.25;;
37069;SDS011;22984;48.862;9.320;2022-11-04T06:34:38;1.63;;;1.10;;
37069;SDS011;22984;48.862;9.320;2022-11-04T06:37:04;2.20;;;1.00;;
37069;SDS011;22984;48.862;9.320;2022-11-04T06:39:31;1.85;;;1.23;;
37069;SDS011;22984;48.862;9.320;2022-11-04T06:41:57;3.67;;;1.40;;
37069;SDS011;22984;48.862;9.320;2022-11-04T06:44:23;3.20;;;1.80;;
37069;SDS011;22984;48.862;9.320;2022-11-04T06:46:49;3.05;;;1.40;;
37069;SDS011;22984;48.862;9.320;2022-11-04T06:49:16;3.35;;;1.25;;
37069;SDS011;22984;48.862;9.320;2022-11-04T06:51:44;4.07;;;1.15;;
37069;SDS011;22984;48.862;9.320;2022-11-04T06:54:10;3.88;;;0.93;;
37069;SDS011;22984;48.862;9.320;2022-11-04T06:56:36;3.72;;;1.05;;
37069;SDS011;22984;48.862;9.320;2022-11-04T06:59:02;4.93;;;1.03;;
37069;SDS011;22984;48.862;9.320;2022-11-04T07:01:29;1.95;;;1.00;;
37069;SDS011;22984;48.862;9.320;2022-11-04T07:03:56;1.98;;;0.80;;
37069;SDS011;22984;48.862;9.320;2022-11-04T07:06:23;1.70;;;1.23;;
37069;SDS011;22984;48.862;9.320;2022-11-04T07:08:50;3.17;;;1.20;;
37069;SDS011;22984;48.862;9.320;2022-11-04T07:11:16;1.83;;;1.10;;
37069;SDS011;22984;48.862;9.320;2022-11-04T07:13:43;2.83;;;1.20;;
37069;SDS011;22984;48.862;9.320;2022-11-04T07:16:09;7.28;;;1.40;;
37069;SDS011;22984;48.862;9.320;2022-11-04T07:18:36;3.50;;;1.10;;
37069;SDS011;22984;48.862;9.320;2022-11-04T07:21:02;2.85;;;1.08;;
37069;SDS011;22984;48.862;9.320;2022-11-04T07:23:28;4.82;;;1.13;;
37069;SDS011;22984;48.862;9.320;2022-11-04T07:25:58;7.22;;;1.60;;
37069;SDS011;22984;48.862;9.320;2022-11-04T07:28:24;1.88;;;1.10;;
37069;SDS011;22984;48.862;9.320;2022-11-04T07:30:50;3.28;;;1.50;;
37069;SDS011;22984;48.862;9.320;2022-11-04T07:33:16;3.20;;;1.00;;
37069;SDS011;22984;48.862;9.320;2022-11-04T07:35:42;3.00;;;1.17;;
37069;SDS011;22984;48.862;9.320;2022-11-04T07:38:09;3.10;;;1.00;;
37069;SDS011;22984;48.862;9.320;2022-11-04T07:40:35;4.77;;;0.90;;
37069;SDS011;22984;48.862;9.320;2022-11-04T07:43:03;2.30;;;0.70;;
37069;SDS011;22984;48.862;9.320;2022-11-04T07:45:29;2.10;;;1.00;;
37069;SDS011;22984;48.862;9.320;2022-11-04T07:47:55;6.05;;;1.33;;
37069;SDS011;22984;48.862;9.320;2022-11-04T07:50:22;3.43;;;1.70;;
37069;SDS011;22984;48.862;9.320;2022-11-04T07:52:48;2.80;;;1.23;;
37069;SDS011;22984;48.862;9.320;2022-11-04T07:55:15;3.65;;;1.20;;
37069;SDS011;22984;48.862;9.320;2022-11-04T07:57:43;5.40;;;1.00;;
37069;SDS011;22984;48.862;9.320;2022-11-04T08:00:09;2.53;;;0.90;;
37069;SDS011;22984;48.862;9.320;2022-11-04T08:02:35;3.17;;;1.40;;
37069;SDS011;22984;48.862;9.320;2022-11-04T08:05:02;2.50;;;1.10;;
37069;SDS011;22984;48.862;9.320;2022-11-04T08:07:30;2.78;;;0.80;;
37069;SDS011;22984;48.862;9.320;2022-11-04T08:09:56;4.20;;;1.00;;
37069;SDS011;22984;48.862;9.320;2022-11-04T08:12:22;3.53;;;1.07;;
37069;SDS011;22984;48.862;9.320;2022-11-04T08:14:48;3.60;;;1.20;;
37069;SDS011;22984;48.862;9.320;2022-11-04T08:17:14;1.92;;;0.90;;
37069;SDS011;22984;48.862;9.320;2022-11-04T08:19:41;5.03;;;1.17;;
37069;SDS011;22984;48.862;9.320;2022-11-04T08:22:07;2.15;;;1.10;;
37069;SDS011;22984;48.862;9.320;2022-11-04T08:24:33;2.87;;;1.33;;
37069;SDS011;22984;48.862;9.320;2022-11-04T08:26:59;2.28;;;1.23;;
37069;SDS011;22984;48.862;9.320;2022-11-04T08:29:25;2.78;;;0.93;;
37069;SDS011;22984;48.862;9.320;2022-11-04T08:31:52;3.10;;;1.00;;
37069;SDS011;22984;48.862;9.320;2022-11-04T08:34:18;2.97;;;1.40;;
37069;SDS011;22984;48.862;9.320;2022-11-04T08:36:44;4.22;;;1.65;;
37069;SDS011;22984;48.862;9.320;2022-11-04T08:39:11;2.40;;;1.00;;
37069;SDS011;22984;48.862;9.320;2022-11-04T08:41:38;1.98;;;1.33;;
37069;SDS011;22984;48.862;9.320;2022-11-04T08:44:05;5.70;;;1.15;;
37069;SDS011;22984;48.862;9.320;2022-11-04T08:46:34;5.47;;;1.20;;
37069;SDS011;22984;48.862;9.320;2022-11-04T08:49:01;1.98;;;0.90;;
37069;SDS011;22984;48.862;9.320;2022-11-04T08:51:27;3.90;;;1.52;;
37069;SDS011;22984;48.862;9.320;2022-11-04T08:53:54;4.80;;;1.05;;
37069;SDS011;22984;48.862;9.320;2022-11-04T08:58:46;3.50;;;1.20;;
37069;SDS011;22984;48.862;9.320;2022-11-04T09:01:13;2.90;;;1.00;;
37069;SDS011;22984;48.862;9.320;2022-11-04T09:03:39;3.67;;;1.00;;
37069;SDS011;22984;48.862;9.320;2022-11-04T09:06:06;2.95;;;1.15;;
37069;SDS011;22984;48.862;9.320;2022-11-04T09:08:33;0.98;;;0.75;;
37069;SDS011;22984;48.862;9.320;2022-11-04T09:11:01;3.73;;;0.90;;
37069;SDS011;22984;48.862;9.320;2022-11-04T09:13:30;1.73;;;0.83;;
37069;SDS011;22984;48.862;9.320;2022-11-04T09:15:56;2.35;;;0.95;;
37069;SDS011;22984;48.862;9.320;2022-11-04T09:18:22;2.90;;;1.02;;
37069;SDS011;22984;48.862;9.320;2022-11-04T09:20:48;1.60;;;0.88;;
37069;SDS011;22984;48.862;9.320;2022-11-04T09:23:14;2.50;;;1.00;;
37069;SDS011;22984;48.862;9.320;2022-11-04T09:25:41;1.42;;;0.70;;
37069;SDS011;22984;48.862;9.320;2022-11-04T09:28:07;1.90;;;1.15;;
37069;SDS011;22984;48.862;9.320;2022-11-04T09:30:33;3.30;;;1.08;;
37069;SDS011;22984;48.862;9.320;2022-11-04T09:32:59;4.30;;;1.15;;
37069;SDS011;22984;48.862;9.320;2022-11-04T09:35:25;1.02;;;0.88;;
37069;SDS011;22984;48.862;9.320;2022-11-04T09:37:51;3.47;;;0.70;;
37069;SDS011;22984;48.862;9.320;2022-11-04T09:40:18;2.78;;;0.60;;
37069;SDS011;22984;48.862;9.320;2022-11-04T09:42:49;2.75;;;0.60;;
37069;SDS011;22984;48.862;9.320;2022-11-04T09:45:18;1.20;;;0.45;;
37069;SDS011;22984;48.862;9.320;2022-11-04T09:47:47;1.77;;;0.40;;
37069;SDS011;22984;48.862;9.320;2022-11-04T09:50:18;3.70;;;0.80;;
37069;SDS011;22984;48.862;9.320;2022-11-04T09:52:47;6.75;;;0.88;;
37069;SDS011;22984;48.862;9.320;2022-11-04T09:57:41;4.55;;;0.82;;
37069;SDS011;22984;48.862;9.320;2022-11-04T10:00:14;3.25;;;1.10;;
37069;SDS011;22984;48.862;9.320;2022-11-04T10:10:54;2.22;;;0.50;;
37069;SDS011;22984;48.862;9.320;2022-11-04T10:20:56;2.00;;;0.73;;
37069;SDS011;22984;48.862;9.320;2022-11-04T10:28:39;2.80;;;0.70;;
37069;SDS011;22984;48.862;9.320;2022-11-04T10:31:06;1.65;;;0.52;;
37069;SDS011;22984;48.862;9.320;2022-11-04T10:33:33;1.95;;;0.52;;
37069;SDS011;22984;48.862;9.320;2022-11-04T10:36:01;2.37;;;0.60;;
37069;SDS011;22984;48.862;9.320;2022-11-04T10:38:47;4.80;;;0.63;;
37069;SDS011;22984;48.862;9.320;2022-11-04T10:41:19;3.10;;;0.65;;
37069;SDS011;22984;48.862;9.320;2022-11-04T10:43:47;2.15;;;0.50;;
37069;SDS011;22984;48.862;9.320;2022-11-04T10:48:50;2.83;;;0.85;;
37069;SDS011;22984;48.862;9.320;2022-11-04T10:51:19;1.30;;;0.40;;
37069;SDS011;22984;48.862;9.320;2022-11-04T10:53:52;1.53;;;0.50;;
37069;SDS011;22984;48.862;9.320;2022-11-04T10:56:37;2.00;;;0.50;;
37069;SDS011;22984;48.862;9.320;2022-11-04T10:59:26;2.20;;;0.50;;
37069;SDS011;22984;48.862;9.320;2022-11-04T11:01:53;1.98;;;0.38;;
37069;SDS011;22984;48.862;9.320;2022-11-04T11:04:27;1.55;;;0.60;;
37069;SDS011;22984;48.862;9.320;2022-11-04T11:06:54;2.72;;;0.80;;
37069;SDS011;22984;48.862;9.320;2022-11-04T11:09:21;3.30;;;0.60;;
37069;SDS011;22984;48.862;9.320;2022-11-04T11:11:52;1.20;;;0.68;;
37069;SDS011;22984;48.862;9.320;2022-11-04T11:16:45;2.13;;;0.75;;
37069;SDS011;22984;48.862;9.320;2022-11-04T11:19:13;2.47;;;0.93;;
37069;SDS011;22984;48.862;9.320;2022-11-04T11:21:45;6.73;;;0.70;;
37069;SDS011;22984;48.862;9.320;2022-11-04T11:24:22;6.10;;;0.85;;
37069;SDS011;22984;48.862;9.320;2022-11-04T11:26:54;6.03;;;0.80;;
37069;SDS011;22984;48.862;9.320;2022-11-04T11:29:24;2.83;;;0.85;;
37069;SDS011;22984;48.862;9.320;2022-11-04T11:31:51;3.63;;;0.75;;
37069;SDS011;22984;48.862;9.320;2022-11-04T11:34:20;4.15;;;1.00;;
37069;SDS011;22984;48.862;9.320;2022-11-04T11:36:47;6.93;;;1.17;;
37069;SDS011;22984;48.862;9.320;2022-11-04T11:39:15;2.80;;;0.80;;
37069;SDS011;22984;48.862;9.320;2022-11-04T11:44:31;5.18;;;1.27;;
37069;SDS011;22984;48.862;9.320;2022-11-04T11:47:01;3.65;;;0.98;;
37069;SDS011;22984;48.862;9.320;2022-11-04T11:49:30;3.83;;;0.88;;
37069;SDS011;22984;48.862;9.320;2022-11-04T11:52:22;6.97;;;1.13;;
37069;SDS011;22984;48.862;9.320;2022-11-04T11:54:49;9.18;;;1.73;;
37069;SDS011;22984;48.862;9.320;2022-11-04T12:00:00;2.47;;;1.20;;
37069;SDS011;22984;48.862;9.320;2022-11-04T12:05:00;5.00;;;0.90;;
37069;SDS011;22984;48.862;9.320;2022-11-04T12:07:30;4.07;;;1.00;;
37069;SDS011;22984;48.862;9.320;2022-11-04T12:25:24;3.13;;;0.90;;
37069;SDS011;22984;48.862;9.320;2022-11-04T12:28:00;4.05;;;0.90;;
37069;SDS011;22984;48.862;9.320;2022-11-04T12:30:28;2.90;;;0.70;;
37069;SDS011;22984;48.862;9.320;2022-11-04T12:33:04;7.40;;;0.80;;
37069;SDS011;22984;48.862;9.320;2022-11-04T12:35:51;4.95;;;1.05;;
37069;SDS011;22984;48.862;9.320;2022-11-04T12:38:26;6.05;;;0.90;;
37069;SDS011;22984;48.862;9.320;2022-11-04T12:41:11;4.50;;;1.30;;
37069;SDS011;22984;48.862;9.320;2022-11-04T12:51:03;2.75;;;0.93;;
37069;SDS011;22984;48.862;9.320;2022-11-04T12:56:08;4.15;;;0.70;;
37069;SDS011;22984;48.862;9.320;2022-11-04T13:04:07;3.70;;;0.82;;
37069;SDS011;22984;48.862;9.320;2022-11-04T13:06:42;4.60;;;1.90;;
37069;SDS011;22984;48.862;9.320;2022-11-04T13:11:56;2.92;;;0.65;;
37069;SDS011;22984;48.862;9.320;2022-11-04T13:14:25;5.43;;;0.93;;
37069;SDS011;22984;48.862;9.320;2022-11-04T13:16:57;2.87;;;0.70;;
37069;SDS011;22984;48.862;9.320;2022-11-04T13:19:33;5.13;;;1.13;;
37069;SDS011;22984;48.862;9.320;2022-11-04T13:22:01;7.50;;;0.87;;
37069;SDS011;22984;48.862;9.320;2022-11-04T13:24:32;3.25;;;0.57;;
37069;SDS011;22984;48.862;9.320;2022-11-04T13:27:00;2.55;;;0.55;;
37069;SDS011;22984;48.862;9.320;2022-11-04T13:29:28;4.97;;;0.68;;
37069;SDS011;22984;48.862;9.320;2022-11-04T13:37:13;4.90;;;0.70;;
37069;SDS011;22984;48.862;9.320;2022-11-04T13:39:45;4.53;;;0.80;;
37069;SDS011;22984;48.862;9.320;2022-11-04T13:44:45;5.28;;;1.05;;
37069;SDS011;22984;48.862;9.320;2022-11-04T13:50:01;5.47;;;1.42;;
37069;SDS011;22984;48.862;9.320;2022-11-04T13:52:31;4.82;;;1.08;;
37069;SDS011;22984;48.862;9.320;2022-11-04T13:55:03;6.60;;;0.73;;
37069;SDS011;22984;48.862;9.320;2022-11-04T13:57:31;3.47;;;1.13;;
37069;SDS011;22984;48.862;9.320;2022-11-04T14:00:07;5.18;;;1.30;;
37069;SDS011;22984;48.862;9.320;2022-11-04T14:02:35;7.28;;;1.55;;
37069;SDS011;22984;48.862;9.320;2022-11-04T14:05:46;3.08;;;0.80;;
37069;SDS011;22984;48.862;9.320;2022-11-04T14:15:58;3.38;;;0.93;;
37069;SDS011;22984;48.862;9.320;2022-11-04T14:18:25;5.53;;;0.70;;
37069;SDS011;22984;48.862;9.320;2022-11-04T14:21:05;5.65;;;1.30;;
37069;SDS011;22984;48.862;9.320;2022-11-04T14:23:31;2.83;;;0.80;;
37069;SDS011;22984;48.862;9.320;2022-11-04T14:26:02;4.00;;;1.10;;
37069;SDS011;22984;48.862;9.320;2022-11-04T14:28:30;4.60;;;1.40;;
37069;SDS011;22984;48.862;9.320;2022-11-04T14:30:57;11.63;;;2.20;;
37069;SDS011;22984;48.862;9.320;2022-11-04T14:33:27;4.10;;;1.20;;
37069;SDS011;22984;48.862;9.320;2022-11-04T14:36:05;5.15;;;1.10;;
37069;SDS011;22984;48.862;9.320;2022-11-04T14:38:38;5.50;;;0.95;;
37069;SDS011;22984;48.862;9.320;2022-11-04T14:41:16;5.70;;;1.02;;
37069;SDS011;22984;48.862;9.320;2022-11-04T14:43:45;5.63;;;1.10;;
37069;SDS011;22984;48.862;9.320;2022-11-04T14:46:16;6.93;;;1.42;;
37069;SDS011;22984;48.862;9.320;2022-11-04T14:48:44;7.80;;;1.17;;
37069;SDS011;22984;48.862;9.320;2022-11-04T14:51:19;2.75;;;1.10;;
37069;SDS011;22984;48.862;9.320;2022-11-04T14:53:48;3.72;;;0.80;;
37069;SDS011;22984;48.862;9.320;2022-11-04T14:56:16;3.75;;;0.50;;
37069;SDS011;22984;48.862;9.320;2022-11-04T14:58:55;2.20;;;0.60;;
37069;SDS011;22984;48.862;9.320;2022-11-04T15:01:22;1.45;;;0.35;;
37069;SDS011;22984;48.862;9.320;2022-11-04T15:03:48;1.33;;;0.20;;
37069;SDS011;22984;48.862;9.320;2022-11-04T15:06:22;1.25;;;0.22;;
37069;SDS011;22984;48.862;9.320;2022-11-04T15:08:48;0.70;;;0.35;;
37069;SDS011;22984;48.862;9.320;2022-11-04T15:11:15;2.28;;;0.38;;
37069;SDS011;22984;48.862;9.320;2022-11-04T15:14:08;1.10;;;0.30;;
37069;SDS011;22984;48.862;9.320;2022-11-04T15:16:36;1.23;;;0.30;;
37069;SDS011;22984;48.862;9.320;2022-11-04T15:19:02;1.58;;;0.30;;
37069;SDS011;22984;48.862;9.320;2022-11-04T15:21:36;1.95;;;0.43;;
37069;SDS011;22984;48.862;9.320;2022-11-04T15:24:03;1.23;;;0.30;;
37069;SDS011;22984;48.862;9.320;2022-11-04T15:26:30;1.20;;;0.20;;
37069;SDS011;22984;48.862;9.320;2022-11-04T15:28:58;1.10;;;0.20;;
37069;SDS011;22984;48.862;9.320;2022-11-04T15:31:25;1.80;;;0.50;;
37069;SDS011;22984;48.862;9.320;2022-11-04T15:33:52;2.25;;;0.30;;
37069;SDS011;22984;48.862;9.320;2022-11-04T15:36:21;2.45;;;0.55;;
37069;SDS011;22984;48.862;9.320;2022-11-04T15:38:58;2.70;;;0.70;;
37069;SDS011;22984;48.862;9.320;2022-11-04T15:41:25;1.87;;;0.83;;
37069;SDS011;22984;48.862;9.320;2022-11-04T15:44:15;2.00;;;1.10;;
37069;SDS011;22984;48.862;9.320;2022-11-04T15:46:46;1.98;;;0.90;;
37069;SDS011;22984;48.862;9.320;2022-11-04T15:49:17;3.78;;;1.00;;
37069;SDS011;22984;48.862;9.320;2022-11-04T15:51:44;2.10;;;1.20;;
37069;SDS011;22984;48.862;9.320;2022-11-04T15:54:17;6.65;;;1.70;;
37069;SDS011;22984;48.862;9.320;2022-11-04T15:56:51;2.25;;;1.95;;
37069;SDS011;22984;48.862;9.320;2022-11-04T15:59:29;2.47;;;2.10;;
37069;SDS011;22984;48.862;9.320;2022-11-04T16:01:56;5.82;;;1.50;;
37069;SDS011;22984;48.862;9.320;2022-11-04T16:04:24;2.65;;;2.28;;
37069;SDS011;22984;48.862;9.320;2022-11-04T16:09:48;3.30;;;1.20;;
37069;SDS011;22984;48.862;9.320;2022-11-04T16:12:15;3.03;;;1.45;;
37069;SDS011;22984;48.862;9.320;2022-11-04T16:14:49;4.93;;;4.50;;
37069;SDS011;22984;48.862;9.320;2022-11-04T16:17:15;3.35;;;1.92;;
37069;SDS011;22984;48.862;9.320;2022-11-04T16:19:43;4.05;;;1.88;;
37069;SDS011;22984;48.862;9.320;2022-11-04T16:22:10;2.80;;;1.10;;
37069;SDS011;22984;48.862;9.320;2022-11-04T16:24:41;2.50;;;1.65;;
37069;SDS011;22984;48.862;9.320;2022-11-04T16:27:12;3.22;;;0.88;;
37069;SDS011;22984;48.862;9.320;2022-11-04T16:29:42;3.35;;;1.20;;
37069;SDS011;22984;48.862;9.320;2022-11-04T16:34:41;3.72;;;3.42;;
37069;SDS011;22984;48.862;9.320;2022-11-04T16:37:08;5.78;;;4.25;;
37069;SDS011;22984;48.862;9.320;2022-11-04T16:39:34;4.57;;;3.33;;
37069;SDS011;22984;48.862;9.320;2022-11-04T16:42:00;4.07;;;2.40;;
37069;SDS011;22984;48.862;9.320;2022-11-04T16:44:27;6.35;;;5.22;;
37069;SDS011;22984;48.862;9.320;2022-11-04T16:46:53;4.25;;;2.25;;
37069;SDS011;22984;48.862;9.320;2022-11-04T16:49:21;3.07;;;1.20;;
37069;SDS011;22984;48.862;9.320;2022-11-04T16:51:48;7.03;;;3.70;;
37069;SDS011;22984;48.862;9.320;2022-11-04T16:54:15;9.98;;;5.28;;
37069;SDS011;22984;48.862;9.320;2022-11-04T16:56:41;2.60;;;2.38;;
37069;SDS011;22984;48.862;9.320;2022-11-04T16:59:08;7.10;;;5.32;;
37069;SDS011;22984;48.862;9.320;2022-11-04T17:01:35;9.48;;;5.30;;
37069;SDS011;22984;48.862;9.320;2022-11-04T17:04:03;4.80;;;3.57;;
37069;SDS011;22984;48.862;9.320;2022-11-04T17:06:30;5.00;;;2.30;;